Terminal Aerodrome Forecast
Issued by NWS Wilmington, OH

Current Version | Previous Version | Text Only | Print | Product List | Glossary Off
Versions: 1 2 3 4 5 6 7 8 9 10 11 12 13 14

000
FTUS41 KILN 082336
TAFCMH
TAF
KCMH 082336Z 0900/0924 20004KT P6SM SCT100 BKN200
     FM091700 21011G18KT P6SM -SN OVC050
      TEMPO 0917/0921 3SM -SN BR SCT025 OVC050
     FM092100 25013G20KT P6SM -SHSN OVC025=

USA.gov is the U.S. government's official web portal to all federal, state and local government web resources and services.